createdAt,value
2023-02-20T00:01:57.181Z,16.95
2023-02-20T00:04:26.423Z,14.27
2023-02-20T00:06:55.476Z,12.02
2023-02-20T00:09:24.550Z,7.70
2023-02-20T00:11:53.665Z,8.65
2023-02-20T00:14:23.500Z,14.93
2023-02-20T00:16:53.916Z,11.02
2023-02-20T00:19:23.170Z,12.23
2023-02-20T00:21:53.082Z,14.20
2023-02-20T00:24:22.278Z,13.77
2023-02-20T00:26:53.127Z,13.73
2023-02-20T00:29:23.900Z,9.65
2023-02-20T00:31:55.454Z,6.65
2023-02-20T00:34:25.282Z,10.07
2023-02-20T00:36:54.499Z,16.00
2023-02-20T00:39:23.537Z,10.23
2023-02-20T00:41:52.675Z,11.40
2023-02-20T00:44:21.851Z,14.35
2023-02-20T00:46:50.842Z,13.40
2023-02-20T00:49:21.459Z,16.10
2023-02-20T00:51:50.961Z,13.57
2023-02-20T00:54:21.040Z,10.00
2023-02-20T00:56:50.042Z,11.57
2023-02-20T00:59:19.260Z,11.00
2023-02-20T01:01:49.712Z,12.35
2023-02-20T01:04:19.885Z,14.68
2023-02-20T01:06:50.496Z,9.60
2023-02-20T01:09:19.762Z,13.23
2023-02-20T01:11:50.585Z,9.63
2023-02-20T01:14:19.584Z,9.73
2023-02-20T01:16:51.434Z,8.25
2023-02-20T01:19:21.615Z,13.82
2023-02-20T01:21:52.522Z,9.43
2023-02-20T01:24:22.196Z,10.75
2023-02-20T01:26:51.610Z,10.70
2023-02-20T01:29:20.796Z,10.18
2023-02-20T01:31:50.856Z,12.68
2023-02-20T01:34:20.947Z,8.75
2023-02-20T01:36:53.504Z,9.68
2023-02-20T01:39:24.976Z,16.05
2023-02-20T01:41:59.346Z,10.18
2023-02-20T01:44:30.726Z,12.57
2023-02-20T01:47:02.152Z,11.35
2023-02-20T01:49:37.510Z,10.75
2023-02-20T01:54:44.932Z,9.38
2023-02-20T01:57:18.908Z,16.38
2023-02-20T01:59:50.339Z,15.27
2023-02-20T02:02:20.076Z,10.68
2023-02-20T02:04:50.193Z,13.75
2023-02-20T02:07:20.814Z,10.57
2023-02-20T02:09:54.583Z,10.50
2023-02-20T02:12:24.544Z,12.07
2023-02-20T02:14:53.646Z,18.55
2023-02-20T02:17:55.960Z,13.88
2023-02-20T02:21:04.548Z,8.88
2023-02-20T02:24:18.463Z,15.07
2023-02-20T02:27:18.478Z,12.38
2023-02-20T02:30:10.877Z,17.45
2023-02-20T02:33:03.535Z,10.90
2023-02-20T02:36:17.466Z,17.25
2023-02-20T02:38:56.264Z,12.40
2023-02-20T02:41:36.100Z,12.70
2023-02-20T02:44:14.519Z,11.57
2023-02-20T02:46:49.987Z,14.75
2023-02-20T02:49:24.849Z,18.00
2023-02-20T02:51:57.810Z,12.23
2023-02-20T02:54:29.226Z,13.93
2023-02-20T02:57:24.370Z,13.48
2023-02-20T02:59:58.054Z,14.98
2023-02-20T03:02:29.112Z,10.70
2023-02-20T03:05:00.684Z,12.18
2023-02-20T03:07:33.061Z,12.00
2023-02-20T03:10:06.627Z,12.50
2023-02-20T03:12:44.276Z,11.55
2023-02-20T03:15:35.222Z,16.20
2023-02-20T03:18:20.539Z,15.77
2023-02-20T03:20:54.160Z,8.90
2023-02-20T03:23:27.703Z,9.98
2023-02-20T03:26:00.591Z,14.30
2023-02-20T03:28:33.754Z,11.27
2023-02-20T03:31:09.398Z,12.05
2023-02-20T03:34:04.538Z,10.98
2023-02-20T03:36:56.125Z,9.68
2023-02-20T03:39:50.698Z,13.65
2023-02-20T03:42:39.152Z,10.00
2023-02-20T03:45:18.077Z,11.32
2023-02-20T03:47:53.034Z,8.43
2023-02-20T03:50:41.753Z,10.00
2023-02-20T03:53:10.992Z,10.55
2023-02-20T03:55:41.486Z,10.20
2023-02-20T03:58:19.140Z,12.48
2023-02-20T04:00:52.929Z,9.50
2023-02-20T04:03:24.627Z,11.07
2023-02-20T04:05:58.612Z,11.63
2023-02-20T04:08:42.837Z,11.35
2023-02-20T04:11:16.523Z,11.98
2023-02-20T04:13:46.298Z,9.85
2023-02-20T04:16:16.005Z,14.20
2023-02-20T04:18:45.342Z,14.43
2023-02-20T04:21:23.079Z,12.40
2023-02-20T04:24:02.802Z,13.45
2023-02-20T04:26:33.445Z,10.00
2023-02-20T04:29:03.361Z,15.68
2023-02-20T04:31:34.881Z,12.15
2023-02-20T04:34:03.934Z,15.57
2023-02-20T04:36:33.041Z,11.85
2023-02-20T04:39:02.436Z,13.55
2023-02-20T04:41:35.830Z,16.63
2023-02-20T04:44:22.676Z,12.52
2023-02-20T04:46:53.432Z,15.50
2023-02-20T04:49:23.407Z,13.23
2023-02-20T04:51:55.846Z,14.88
2023-02-20T04:54:25.284Z,11.32
2023-02-20T04:56:55.878Z,14.60
2023-02-20T04:59:25.561Z,13.00
2023-02-20T05:01:55.046Z,12.68
2023-02-20T05:04:24.320Z,10.23
2023-02-20T05:06:55.041Z,14.98
2023-02-20T05:09:25.141Z,13.23
2023-02-20T05:11:55.760Z,12.82
2023-02-20T05:14:25.154Z,13.55
2023-02-20T05:16:54.200Z,12.52
2023-02-20T05:19:23.266Z,14.10
2023-02-20T05:22:09.879Z,14.73
2023-02-20T05:24:38.972Z,15.57
2023-02-20T05:27:10.300Z,14.32
2023-02-20T05:29:39.317Z,14.20
2023-02-20T05:32:08.503Z,13.95
2023-02-20T05:34:37.526Z,10.20
2023-02-20T05:37:06.564Z,13.88
2023-02-20T05:39:35.803Z,12.10
2023-02-20T05:42:05.106Z,16.67
2023-02-20T05:44:35.745Z,12.48
2023-02-20T05:47:05.791Z,12.88
2023-02-20T05:49:35.127Z,9.10
2023-02-20T05:52:10.248Z,14.93
2023-02-20T05:57:08.920Z,13.73
2023-02-20T05:59:39.318Z,10.88
2023-02-20T06:02:08.394Z,12.13
2023-02-20T06:04:37.662Z,13.48
2023-02-20T06:07:10.515Z,14.23
2023-02-20T06:09:43.441Z,15.35
2023-02-20T06:12:13.186Z,14.88
2023-02-20T06:14:43.696Z,17.38
2023-02-20T06:17:12.795Z,12.95
2023-02-20T06:19:41.865Z,13.48
2023-02-20T06:22:11.030Z,15.80
2023-02-20T06:24:40.464Z,12.95
2023-02-20T06:27:09.586Z,12.77
2023-02-20T06:29:38.581Z,16.55
2023-02-20T06:32:09.298Z,11.63
2023-02-20T06:34:39.273Z,17.00
2023-02-20T06:37:08.460Z,11.32
2023-02-20T06:39:38.184Z,13.50
2023-02-20T06:42:07.965Z,16.45
2023-02-20T06:44:37.031Z,12.73
2023-02-20T06:47:09.339Z,11.38
2023-02-20T06:49:42.117Z,10.32
2023-02-20T06:52:11.532Z,19.30
2023-02-20T06:54:40.651Z,12.13
2023-02-20T06:57:10.802Z,15.05
2023-02-20T06:59:41.909Z,13.77
2023-02-20T07:02:13.255Z,16.90
2023-02-20T07:04:43.951Z,15.02
2023-02-20T07:07:13.097Z,11.93
2023-02-20T07:09:44.503Z,15.88
2023-02-20T07:12:14.316Z,18.08
2023-02-20T07:14:43.435Z,15.65
2023-02-20T07:17:13.279Z,14.80
2023-02-20T07:19:43.736Z,14.00
2023-02-20T07:22:12.890Z,12.13
2023-02-20T07:24:42.848Z,15.30
2023-02-20T07:27:11.965Z,16.13
2023-02-20T07:29:42.313Z,14.40
2023-02-20T07:32:11.500Z,17.20
2023-02-20T07:34:42.086Z,15.98
2023-02-20T07:37:15.342Z,13.90
2023-02-20T07:39:44.614Z,13.15
2023-02-20T07:42:13.631Z,15.52
2023-02-20T07:44:52.997Z,19.40
2023-02-20T07:47:21.988Z,16.70
2023-02-20T07:49:51.301Z,15.18
2023-02-20T07:52:25.911Z,13.13
2023-02-20T07:54:54.975Z,15.45
2023-02-20T07:57:24.391Z,17.95
2023-02-20T07:59:53.823Z,16.92
2023-02-20T08:02:24.770Z,15.50
2023-02-20T08:04:53.972Z,13.65
2023-02-20T08:07:24.542Z,14.43
2023-02-20T08:09:54.571Z,15.57
2023-02-20T08:12:23.761Z,19.00
2023-02-20T08:14:53.400Z,16.58
2023-02-20T08:17:22.587Z,16.05
2023-02-20T08:19:51.732Z,15.02
2023-02-20T08:22:22.650Z,12.57
2023-02-20T08:24:56.364Z,14.43
2023-02-20T08:27:25.528Z,16.48
2023-02-20T08:29:55.100Z,14.10
2023-02-20T08:32:24.478Z,19.77
2023-02-20T08:34:53.861Z,12.93
2023-02-20T08:37:23.086Z,13.90
2023-02-20T08:39:52.382Z,13.40
2023-02-20T08:42:23.098Z,13.25
2023-02-20T08:44:52.392Z,12.68
2023-02-20T08:47:23.949Z,15.85
2023-02-20T08:49:53.298Z,15.95
2023-02-20T08:52:22.329Z,12.15
2023-02-20T08:54:51.649Z,14.30
2023-02-20T08:57:23.520Z,15.77
2023-02-20T08:59:53.836Z,14.07
2023-02-20T09:02:28.913Z,14.45
2023-02-20T09:04:58.875Z,14.27
2023-02-20T09:07:28.178Z,17.67
2023-02-20T09:09:57.536Z,14.48
2023-02-20T09:12:28.362Z,14.40
2023-02-20T09:14:57.331Z,16.05
2023-02-20T09:17:26.365Z,14.27
2023-02-20T09:19:57.139Z,10.77
2023-02-20T09:22:28.668Z,12.90
2023-02-20T09:24:57.834Z,13.63
2023-02-20T09:27:28.405Z,8.07
2023-02-20T09:29:57.434Z,12.02
2023-02-20T09:32:26.633Z,11.85
2023-02-20T09:34:55.704Z,15.35
2023-02-20T09:37:24.813Z,10.88
2023-02-20T09:39:54.258Z,9.73
2023-02-20T09:42:38.815Z,16.27
2023-02-20T09:45:13.546Z,10.68
2023-02-20T09:47:55.244Z,13.50
2023-02-20T09:50:36.078Z,11.25
2023-02-20T09:53:13.788Z,13.10
2023-02-20T09:55:44.794Z,15.60
2023-02-20T09:58:23.361Z,12.88
2023-02-20T10:00:53.777Z,14.10
2023-02-20T10:03:30.848Z,13.30
2023-02-20T10:06:00.692Z,13.77
2023-02-20T10:08:29.760Z,14.68
2023-02-20T10:11:11.346Z,15.60
2023-02-20T10:13:59.301Z,17.77
2023-02-20T10:16:38.255Z,12.02
2023-02-20T10:19:20.729Z,13.63
2023-02-20T10:22:00.210Z,14.43
2023-02-20T10:24:42.771Z,12.52
2023-02-20T10:27:26.733Z,15.88
2023-02-20T10:29:58.987Z,13.43
2023-02-20T10:32:33.622Z,16.85
2023-02-20T10:35:08.227Z,14.07
2023-02-20T10:37:47.896Z,19.75
2023-02-20T10:40:28.620Z,11.75
2023-02-20T10:43:03.873Z,13.35
2023-02-20T10:48:09.717Z,17.70
2023-02-20T10:50:44.416Z,11.68
2023-02-20T10:53:22.474Z,13.77
2023-02-20T10:55:57.375Z,14.82
2023-02-20T10:58:33.568Z,11.77
2023-02-20T11:01:07.310Z,17.95
2023-02-20T11:03:42.949Z,14.93
2023-02-20T11:06:17.491Z,12.23
2023-02-20T11:08:47.546Z,15.35
2023-02-20T11:11:27.543Z,11.35
2023-02-20T11:13:56.826Z,9.70
2023-02-20T11:16:31.476Z,12.68
2023-02-20T11:19:09.651Z,11.93
2023-02-20T11:21:41.919Z,12.07
2023-02-20T11:24:21.538Z,14.57
2023-02-20T11:26:52.476Z,12.98
2023-02-20T11:29:24.242Z,15.50
2023-02-20T11:31:54.777Z,15.02
2023-02-20T11:34:28.843Z,15.10
2023-02-20T11:37:06.292Z,12.05
2023-02-20T11:39:35.670Z,10.95
2023-02-20T11:42:13.206Z,15.10
2023-02-20T11:44:42.287Z,17.05
2023-02-20T11:47:28.422Z,14.95
2023-02-20T11:50:20.003Z,19.30
2023-02-20T11:53:05.405Z,11.18
2023-02-20T11:55:35.104Z,14.43
2023-02-20T11:58:04.604Z,15.52
2023-02-20T12:00:48.537Z,13.40
2023-02-20T12:03:24.931Z,14.40
2023-02-20T12:05:54.266Z,12.30
2023-02-20T12:08:52.923Z,17.13
2023-02-20T12:11:23.118Z,13.93
2023-02-20T12:13:54.359Z,14.35
2023-02-20T12:16:54.864Z,10.50
2023-02-20T12:19:36.332Z,19.83
2023-02-20T12:22:16.607Z,12.90
2023-02-20T12:25:01.443Z,13.95
2023-02-20T12:27:46.428Z,10.38
2023-02-20T12:30:34.229Z,13.15
2023-02-20T12:33:20.358Z,13.27
2023-02-20T12:36:01.002Z,17.35
2023-02-20T12:38:45.015Z,12.15
2023-02-20T12:41:44.371Z,12.23
2023-02-20T12:44:43.777Z,10.93
2023-02-20T12:47:20.623Z,16.80
2023-02-20T12:50:14.918Z,11.93
2023-02-20T12:53:08.006Z,15.30
2023-02-20T12:55:47.416Z,13.07
2023-02-20T12:58:27.005Z,15.85
2023-02-20T13:01:00.872Z,15.15
2023-02-20T13:03:45.518Z,15.57
2023-02-20T13:06:22.956Z,14.87
2023-02-20T13:09:03.180Z,13.27
2023-02-20T13:11:37.377Z,16.00
2023-02-20T13:14:21.044Z,15.80
2023-02-20T13:16:57.232Z,14.70
2023-02-20T13:19:35.329Z,17.20
2023-02-20T13:22:06.450Z,13.85
2023-02-20T13:24:38.376Z,18.42
2023-02-20T13:27:09.123Z,14.45
2023-02-20T13:29:39.749Z,16.42
2023-02-20T13:32:26.692Z,18.23
2023-02-20T13:35:03.783Z,16.38
2023-02-20T13:37:52.487Z,18.02
2023-02-20T13:43:35.043Z,13.98
2023-02-20T13:46:25.073Z,12.75
2023-02-20T13:48:56.411Z,14.85
2023-02-20T13:51:36.739Z,16.27
2023-02-20T13:54:28.151Z,20.02
2023-02-20T13:57:03.218Z,20.00
2023-02-20T13:59:37.631Z,19.60
2023-02-20T14:02:17.708Z,15.50
2023-02-20T14:04:57.537Z,17.95
2023-02-20T14:07:37.518Z,19.95
2023-02-20T14:10:15.827Z,14.65
2023-02-20T14:12:45.299Z,16.70
2023-02-20T14:15:15.818Z,18.95
2023-02-20T14:17:44.868Z,20.80
2023-02-20T14:20:23.033Z,22.58
2023-02-20T14:23:08.282Z,21.63
2023-02-20T14:25:37.445Z,19.10
2023-02-20T14:28:13.948Z,12.82
2023-02-20T14:30:44.589Z,22.17
2023-02-20T14:33:23.406Z,18.00
2023-02-20T14:36:19.483Z,15.50
2023-02-20T14:39:04.236Z,11.70
2023-02-20T14:41:33.630Z,19.40
2023-02-20T14:44:04.660Z,17.80
2023-02-20T14:46:37.515Z,19.52
2023-02-20T14:49:09.512Z,20.30
2023-02-20T14:51:39.532Z,22.48
2023-02-20T14:54:21.155Z,17.88
2023-02-20T14:56:52.171Z,19.08
2023-02-20T14:59:26.510Z,13.43
2023-02-20T15:02:00.198Z,22.92
2023-02-20T15:04:30.063Z,20.25
2023-02-20T15:07:05.462Z,27.23
2023-02-20T15:09:44.215Z,21.38
2023-02-20T15:12:42.154Z,17.17
2023-02-20T15:15:14.293Z,20.88
2023-02-20T15:17:45.779Z,21.75
2023-02-20T15:20:19.115Z,26.30
2023-02-20T15:22:48.352Z,22.33
2023-02-20T15:25:29.723Z,24.35
2023-02-20T15:28:10.980Z,19.85
2023-02-20T15:31:01.792Z,23.42
2023-02-20T15:33:34.971Z,24.05
2023-02-20T15:36:05.211Z,21.73
2023-02-20T15:38:36.547Z,20.85
2023-02-20T15:41:06.791Z,19.52
2023-02-20T15:43:46.214Z,21.58
2023-02-20T15:46:17.174Z,24.95
2023-02-20T15:48:47.746Z,18.10
2023-02-20T15:51:20.415Z,18.42
2023-02-20T15:53:50.529Z,12.35
2023-02-20T15:56:20.066Z,18.48
2023-02-20T15:58:50.478Z,27.58
2023-02-20T16:01:19.680Z,24.63
2023-02-20T16:03:52.697Z,26.17
2023-02-20T16:06:24.066Z,34.80
2023-02-20T16:08:54.126Z,26.45
2023-02-20T16:11:25.702Z,16.95
2023-02-20T16:13:57.761Z,24.05
2023-02-20T16:16:34.035Z,31.58
2023-02-20T16:19:05.838Z,21.85
2023-02-20T16:21:34.997Z,17.50
2023-02-20T16:24:04.134Z,20.90
2023-02-20T16:26:36.259Z,35.33
2023-02-20T16:29:08.752Z,20.13
2023-02-20T16:32:16.523Z,32.17
2023-02-20T16:34:47.091Z,19.13
2023-02-20T16:37:16.959Z,25.95
2023-02-20T16:39:46.517Z,18.08
2023-02-20T16:42:34.869Z,18.13
2023-02-20T16:45:06.593Z,20.25
2023-02-20T16:47:35.651Z,21.98
2023-02-20T16:50:07.575Z,24.58
2023-02-20T16:52:38.350Z,19.75
2023-02-20T16:55:09.093Z,33.55
2023-02-20T16:57:38.430Z,32.08
2023-02-20T17:00:08.453Z,22.98
2023-02-20T17:02:37.507Z,31.77
2023-02-20T17:05:08.356Z,21.90
2023-02-20T17:07:37.474Z,22.50
2023-02-20T17:10:07.268Z,29.13
2023-02-20T17:12:37.034Z,26.48
2023-02-20T17:15:08.640Z,28.25
2023-02-20T17:17:38.830Z,17.83
2023-02-20T17:20:14.208Z,23.25
2023-02-20T17:22:44.238Z,25.20
2023-02-20T17:25:17.587Z,32.40
2023-02-20T17:27:47.353Z,30.38
2023-02-20T17:30:18.240Z,29.02
2023-02-20T17:32:47.456Z,29.30
2023-02-20T17:35:19.143Z,28.92
2023-02-20T17:37:49.314Z,28.98
2023-02-20T17:40:19.310Z,18.52
2023-02-20T17:42:48.939Z,26.73
2023-02-20T17:45:18.296Z,25.20
2023-02-20T17:47:47.602Z,25.98
2023-02-20T17:50:20.913Z,30.20
2023-02-20T17:52:54.712Z,26.92
2023-02-20T17:55:26.499Z,18.25
2023-02-20T17:57:55.644Z,25.38
2023-02-20T18:00:25.136Z,27.25
2023-02-20T18:02:54.356Z,25.70
2023-02-20T18:05:24.879Z,37.47
2023-02-20T18:07:54.007Z,24.67
2023-02-20T18:10:23.144Z,29.77
2023-02-20T18:13:03.608Z,32.45
2023-02-20T18:15:33.563Z,28.77
2023-02-20T18:18:03.274Z,21.13
2023-02-20T18:20:33.811Z,29.02
2023-02-20T18:23:03.100Z,27.88
2023-02-20T18:25:41.121Z,30.83
2023-02-20T18:28:10.902Z,26.30
2023-02-20T18:30:40.985Z,30.48
2023-02-20T18:33:10.375Z,23.05
2023-02-20T18:35:41.056Z,24.73
2023-02-20T18:38:10.167Z,25.23
2023-02-20T18:40:39.319Z,33.70
2023-02-20T18:43:08.684Z,23.58
2023-02-20T18:45:37.781Z,27.60
2023-02-20T18:48:07.108Z,27.02
2023-02-20T18:50:36.284Z,32.38
2023-02-20T18:53:06.757Z,36.92
2023-02-20T18:55:35.888Z,29.60
2023-02-20T18:58:05.047Z,37.13
2023-02-20T19:00:34.933Z,27.17
2023-02-20T19:03:04.568Z,27.05
2023-02-20T19:05:33.869Z,25.73
2023-02-20T19:08:04.608Z,22.13
2023-02-20T19:10:35.200Z,24.85
2023-02-20T19:13:04.511Z,26.75
2023-02-20T19:15:33.490Z,28.90
2023-02-20T19:18:02.502Z,31.02
2023-02-20T19:20:32.292Z,31.00
2023-02-20T19:23:02.510Z,24.23
2023-02-20T19:25:31.911Z,31.15
2023-02-20T19:28:02.376Z,24.65
2023-02-20T19:30:31.578Z,31.88
2023-02-20T19:33:00.914Z,24.90
2023-02-20T19:35:29.935Z,30.63
2023-02-20T19:37:59.193Z,24.08
2023-02-20T19:40:29.121Z,26.20
2023-02-20T19:42:58.140Z,31.00
2023-02-20T19:45:28.522Z,31.83
2023-02-20T19:47:57.665Z,35.72
2023-02-20T19:50:30.572Z,28.60
2023-02-20T19:53:00.252Z,34.80
2023-02-20T19:55:29.296Z,31.02
2023-02-20T19:57:58.371Z,29.20
2023-02-20T20:00:28.917Z,30.60
2023-02-20T20:02:58.415Z,36.38
2023-02-20T20:05:28.594Z,28.75
2023-02-20T20:07:57.681Z,28.95
2023-02-20T20:10:29.190Z,27.83
2023-02-20T20:12:58.275Z,29.50
2023-02-20T20:15:29.242Z,46.88
2023-02-20T20:18:01.305Z,32.17
2023-02-20T20:20:32.086Z,24.02
2023-02-20T20:23:03.439Z,25.05
2023-02-20T20:25:32.869Z,25.88
2023-02-20T20:28:02.367Z,34.95
2023-02-20T20:30:33.646Z,26.88
2023-02-20T20:33:02.918Z,27.98
2023-02-20T20:35:32.071Z,25.95
2023-02-20T20:38:02.881Z,21.80
2023-02-20T20:40:31.909Z,26.00
2023-02-20T20:43:00.943Z,28.27
2023-02-20T20:45:30.294Z,47.58
2023-02-20T20:48:01.128Z,30.20
2023-02-20T20:50:31.460Z,29.50
2023-02-20T20:53:01.140Z,28.95
2023-02-20T20:55:30.749Z,25.27
2023-02-20T20:57:59.734Z,24.80
2023-02-20T21:00:32.148Z,26.60
2023-02-20T21:03:03.863Z,28.23
2023-02-20T21:05:34.831Z,28.80
2023-02-20T21:08:06.044Z,21.25
2023-02-20T21:10:35.283Z,25.80
2023-02-20T21:13:04.865Z,26.63
2023-02-20T21:15:34.506Z,22.02
2023-02-20T21:18:05.615Z,21.23
2023-02-20T21:20:36.152Z,22.67
2023-02-20T21:23:06.840Z,25.48
2023-02-20T21:25:36.062Z,27.23
2023-02-20T21:28:05.409Z,31.58
2023-02-20T21:30:34.544Z,25.20
2023-02-20T21:33:05.125Z,32.67
2023-02-20T21:35:34.124Z,30.67
2023-02-20T21:38:03.386Z,25.98
2023-02-20T21:40:32.512Z,23.35
2023-02-20T21:43:18.809Z,29.58
2023-02-20T21:45:49.971Z,24.10
2023-02-20T21:48:20.391Z,28.05
2023-02-20T21:50:49.723Z,25.67
2023-02-20T21:53:18.825Z,22.63
2023-02-20T21:55:48.244Z,28.27
2023-02-20T21:58:22.209Z,26.77
2023-02-20T22:00:50.127Z,24.10
2023-02-20T22:03:19.334Z,25.25
2023-02-20T22:05:47.300Z,34.90
2023-02-20T22:08:33.610Z,36.78
2023-02-20T22:11:19.979Z,34.53
2023-02-20T22:14:06.464Z,27.40
2023-02-20T22:16:52.883Z,27.17
2023-02-20T22:19:40.389Z,28.48
2023-02-20T22:22:26.628Z,27.38
2023-02-20T22:25:12.954Z,25.48
2023-02-20T22:27:59.524Z,30.20
2023-02-20T22:30:49.286Z,24.05
2023-02-20T22:33:36.192Z,29.38
2023-02-20T22:36:25.158Z,29.13
2023-02-20T22:39:11.620Z,21.60
2023-02-20T22:41:58.157Z,38.80
2023-02-20T22:44:45.167Z,37.03
2023-02-20T22:47:31.452Z,23.45
2023-02-20T22:50:18.146Z,25.20
2023-02-20T22:53:06.082Z,26.50
2023-02-20T22:55:52.601Z,28.83
2023-02-20T22:58:39.163Z,31.02
2023-02-20T23:01:25.924Z,25.27
2023-02-20T23:04:12.019Z,23.77
2023-02-20T23:06:58.303Z,25.77
2023-02-20T23:09:46.197Z,25.58
2023-02-20T23:12:32.937Z,26.00
2023-02-20T23:15:19.616Z,20.40
2023-02-20T23:18:31.361Z,27.52
2023-02-20T23:21:17.872Z,18.73
2023-02-20T23:24:05.680Z,32.38
2023-02-20T23:26:53.378Z,19.23
2023-02-20T23:29:40.075Z,35.03
2023-02-20T23:32:26.830Z,28.10
2023-02-20T23:35:13.471Z,30.40
2023-02-20T23:38:00.007Z,22.67
2023-02-20T23:40:46.711Z,28.67
2023-02-20T23:43:34.186Z,25.33
2023-02-20T23:46:20.630Z,22.90
2023-02-20T23:49:07.196Z,20.83
2023-02-20T23:51:53.766Z,22.67
2023-02-20T23:54:40.442Z,24.45
2023-02-20T23:57:27.042Z,19.17
